Time;durP1;ratioP1;P1;durP2;ratioP2;P2;SDS_P1;SDS_P2;PMS_P1;PMS_P2;Temp;Humidity;BMP_temperature;BMP_pressure;BME280_temperature;BME280_humidity;BME280_pressure;Samples;Min_cycle;Max_cycle;Signal;HPM_P1;HPM_P2
2023/10/07 00:01:02;;;;;;;6.35;3.47;;;14.50;99.90;;;-141.84;70.20;20508.97;5044167;28;20256;-63
2023/10/07 00:03:30;;;;;;;4.93;3.10;;;14.50;99.90;;;-141.84;70.20;20525.22;5043554;28;20237;-62
2023/10/07 00:06:01;;;;;;;5.47;3.10;;;14.50;99.90;;;-141.84;70.54;20521.16;5036178;28;20834;-62
2023/10/07 00:08:32;;;;;;;4.80;2.83;;;14.50;99.90;;;-141.84;70.83;20482.53;5043818;28;20225;-62
2023/10/07 00:11:11;;;;;;;7.45;3.55;;;14.50;99.90;;;-141.84;69.75;20531.31;5037749;28;20704;-62
2023/10/07 00:13:41;;;;;;;6.45;3.30;;;14.50;99.90;;;-141.84;70.57;20482.53;5023846;28;20252;-63
2023/10/07 00:16:11;;;;;;;4.90;3.50;;;14.50;99.90;;;-141.84;70.43;20506.94;5016552;28;20206;-62
2023/10/07 00:18:40;;;;;;;5.47;2.80;;;14.50;99.90;;;-141.84;71.06;20454.09;5023738;28;20234;-62
2023/10/07 00:21:15;;;;;;;4.38;3.00;;;14.40;99.90;;;-141.84;70.93;20452.06;5023600;28;20244;-62
2023/10/07 00:23:44;;;;;;;5.13;3.33;;;14.40;99.90;;;-141.84;70.30;20502.88;5023508;28;20712;-63
2023/10/07 00:26:14;;;;;;;5.57;3.20;;;14.40;99.90;;;-141.84;70.06;20480.50;5029183;28;20240;-62
2023/10/07 00:28:54;;;;;;;4.53;3.55;;;14.40;99.90;;;-141.84;70.29;20488.63;5043749;28;20210;-63
2023/10/07 00:31:27;;;;;;;4.18;3.08;;;14.50;99.90;;;-141.84;68.62;20582.16;5043772;28;20201;-62
2023/10/07 00:34:05;;;;;;;5.22;3.10;;;14.60;99.90;;;-141.84;68.27;20588.25;5024265;28;20325;-62
2023/10/07 00:36:43;;;;;;;3.78;2.42;;;14.70;99.90;;;-141.84;69.66;20561.81;5029019;28;20762;-62
2023/10/07 00:39:20;;;;;;;4.05;2.97;;;14.70;99.90;;;-141.84;70.32;20506.94;5043334;28;20240;-62
2023/10/07 00:41:58;;;;;;;6.05;2.72;;;14.70;99.90;;;-141.84;70.32;20537.44;5028709;28;20248;-62
2023/10/07 00:44:32;;;;;;;4.22;2.65;;;14.70;99.90;;;-141.84;70.69;20511.00;5030933;28;20236;-62
2023/10/07 00:47:12;;;;;;;5.07;2.72;;;14.50;99.90;;;-141.84;70.55;20500.84;5043862;28;20227;-62
2023/10/07 00:49:43;;;;;;;4.55;2.90;;;14.50;99.90;;;-141.84;71.08;20447.97;5042778;28;20299;-63
2023/10/07 00:52:27;;;;;;;4.65;3.00;;;14.50;99.90;;;-141.84;71.24;20474.41;5036736;28;20228;-62
2023/10/07 00:55:08;;;;;;;6.18;3.00;;;14.40;99.90;;;-141.84;71.04;20454.09;5043042;28;20580;-62
2023/10/07 00:57:47;;;;;;;4.75;2.92;;;14.40;99.90;;;-141.84;71.10;20460.19;5043212;28;20260;-62
2023/10/07 01:00:34;;;;;;;4.50;3.30;;;14.30;99.90;;;-141.84;69.99;20513.03;5033644;28;20439;-63
2023/10/07 01:03:23;;;;;;;4.15;2.80;;;14.40;99.90;;;-141.84;70.58;20492.72;5042883;28;20307;-63
2023/10/07 01:06:09;;;;;;;5.65;3.67;;;14.40;99.90;;;-141.84;69.63;20537.44;5042448;28;20672;-62
2023/10/07 01:08:44;;;;;;;5.10;3.10;;;14.50;99.90;;;-141.84;69.91;20506.94;5042281;28;20253;-62
2023/10/07 01:11:22;;;;;;;5.35;2.83;;;14.50;99.90;;;-141.84;69.76;20517.09;5034640;28;20320;-63
2023/10/07 01:13:56;;;;;;;5.78;3.25;;;14.50;99.90;;;-141.84;69.50;20502.88;5023081;28;20202;-63
2023/10/07 01:16:40;;;;;;;6.22;3.40;;;14.60;99.90;;;-141.84;69.54;20511.00;5023485;28;20202;-62
2023/10/07 01:19:26;;;;;;;3.83;2.88;;;14.60;99.90;;;-141.84;69.57;20511.00;5022836;28;20229;-63
2023/10/07 01:21:59;;;;;;;5.30;3.50;;;14.50;99.90;;;-141.84;69.15;20541.50;5015672;28;20230;-62
2023/10/07 01:24:44;;;;;;;4.72;3.00;;;14.60;99.90;;;-141.84;69.35;20584.19;5022208;28;20627;-62
2023/10/07 01:27:21;;;;;;;6.05;3.15;;;14.60;99.90;;;-141.84;69.50;20490.66;5022332;28;20697;-62
2023/10/07 01:29:59;;;;;;;5.47;3.03;;;14.60;99.90;;;-141.84;68.51;20551.66;5026458;28;20261;-61
2023/10/07 01:32:32;;;;;;;5.55;3.17;;;14.70;99.90;;;-141.84;69.26;20504.91;5025436;28;20233;-63
2023/10/07 01:35:05;;;;;;;4.80;3.10;;;14.70;99.90;;;-141.84;69.44;20506.94;5042181;28;20239;-62
2023/10/07 01:37:42;;;;;;;5.10;3.55;;;14.60;99.90;;;-141.84;68.75;20569.94;5041548;28;20217;-63
2023/10/07 01:40:16;;;;;;;6.65;3.20;;;14.70;99.90;;;-141.84;69.17;20511.00;5042491;28;20681;-62
2023/10/07 01:42:45;;;;;;;5.07;2.97;;;14.70;99.90;;;-141.84;68.87;20525.22;5039753;28;20252;-62
2023/10/07 01:45:21;;;;;;;6.20;3.20;;;14.70;99.90;;;-141.84;69.01;20537.44;5044875;28;20240;-61
2023/10/07 01:47:54;;;;;;;5.18;3.10;;;14.70;99.90;;;-141.84;69.38;20529.28;5042810;28;20468;-62
2023/10/07 01:50:24;;;;;;;4.82;3.58;;;14.70;99.90;;;-141.84;68.59;20525.22;5048170;28;20254;-63
2023/10/07 01:52:56;;;;;;;7.22;3.42;;;14.80;99.90;;;-141.84;69.25;20513.03;5060374;28;20239;-62
2023/10/07 01:55:27;;;;;;;5.63;3.22;;;14.70;99.90;;;-141.84;69.50;20533.34;5041094;28;20525;-62
2023/10/07 01:57:56;;;;;;;5.15;3.20;;;14.70;99.90;;;-141.84;68.96;20533.34;5034472;28;20237;-62
2023/10/07 02:00:38;;;;;;;6.28;3.20;;;14.70;99.90;;;-141.84;69.00;20525.22;5027287;28;20240;-62
2023/10/07 02:03:09;;;;;;;5.28;3.25;;;14.70;99.90;;;-141.84;68.71;20529.28;5030574;28;20229;-62
2023/10/07 02:05:40;;;;;;;5.43;3.60;;;14.80;99.90;;;-141.84;69.15;20508.97;5042101;28;20225;-62
2023/10/07 02:08:14;;;;;;;4.80;3.00;;;14.70;99.90;;;-141.84;69.73;20535.41;5034954;28;20226;-62
2023/10/07 02:10:45;;;;;;;4.47;3.38;;;14.60;99.90;;;-141.84;70.78;20490.66;5042160;28;20209;-62
2023/10/07 02:13:19;;;;;;;5.53;3.00;;;14.50;99.90;;;-141.84;70.41;20494.75;5042513;28;20229;-61
2023/10/07 02:15:48;;;;;;;6.97;3.42;;;14.50;99.90;;;-141.84;70.88;20435.78;5042077;28;20233;-63
2023/10/07 02:18:17;;;;;;;4.60;3.17;;;14.50;99.90;;;-141.84;70.56;20482.53;5035279;28;20229;-62
2023/10/07 02:20:49;;;;;;;6.72;3.22;;;14.40;99.90;;;-141.84;70.60;20460.19;5043799;28;20241;-62
2023/10/07 02:23:27;;;;;;;6.68;3.35;;;14.40;99.90;;;-141.84;70.12;20508.97;5045221;28;20225;-62
2023/10/07 02:25:59;;;;;;;5.60;3.47;;;14.50;99.90;;;-141.84;69.57;20480.50;5036473;28;20588;-63
2023/10/07 02:28:33;;;;;;;5.78;3.38;;;14.50;99.90;;;-141.84;69.86;20513.03;5045603;28;20716;-62
2023/10/07 02:31:07;;;;;;;4.95;3.20;;;14.50;99.90;;;-141.84;69.67;20525.22;5065105;28;20239;-62
2023/10/07 02:33:42;;;;;;;5.10;3.25;;;14.60;99.90;;;-141.84;69.56;20525.22;5049326;28;20228;-62
2023/10/07 02:36:21;;;;;;;4.43;3.33;;;14.60;99.90;;;-141.84;69.78;20508.97;5037490;28;20247;-62
2023/10/07 02:38:52;;;;;;;6.57;3.70;;;14.60;99.90;;;-141.84;69.85;20492.72;5045522;28;20229;-62
2023/10/07 02:41:24;;;;;;;5.78;3.60;;;14.60;99.90;;;-141.84;69.45;20531.31;5044897;28;20236;-63
2023/10/07 02:43:53;;;;;;;4.80;3.13;;;14.80;99.90;;;-141.84;69.58;20504.91;5043972;28;20734;-64
2023/10/07 02:46:31;;;;;;;4.97;3.20;;;14.70;99.90;;;-141.84;68.41;20565.88;5043002;28;20209;-62
2023/10/07 02:49:05;;;;;;;4.68;3.20;;;14.90;99.90;;;-141.84;68.38;20606.53;5045090;28;20286;-64
2023/10/07 02:51:39;;;;;;;6.18;3.90;;;14.80;99.90;;;-141.84;67.84;20632.97;5045249;28;20704;-62
2023/10/07 02:54:17;;;;;;;7.95;3.88;;;15.00;99.90;;;-141.84;67.79;20635.00;5037387;28;20232;-62
2023/10/07 02:56:54;;;;;;;5.60;3.85;;;15.00;99.90;;;-141.84;67.71;20567.91;5044804;28;20236;-62
2023/10/07 02:59:28;;;;;;;6.60;3.72;;;15.10;99.90;;;-141.84;68.31;20576.03;5044912;28;20235;-62
2023/10/07 03:02:20;;;;;;;5.35;3.45;;;15.10;99.90;;;-141.84;67.97;20612.63;5037795;28;20255;-62
2023/10/07 03:05:14;;;;;;;10.50;3.80;;;15.00;99.90;;;-141.84;68.37;20576.03;5044844;28;20307;-62
2023/10/07 03:07:49;;;;;;;5.97;3.38;;;14.90;99.90;;;-141.84;68.71;20533.34;5044842;28;20220;-62
2023/10/07 03:10:18;;;;;;;6.13;3.67;;;14.90;99.90;;;-141.84;68.72;20574.00;5038823;28;20213;-62
2023/10/07 03:12:56;;;;;;;5.47;3.75;;;14.90;99.90;;;-141.84;69.45;20517.09;5024479;28;20233;-62
2023/10/07 03:15:41;;;;;;;4.75;3.42;;;14.80;99.90;;;-141.84;69.85;20523.19;5024674;28;20283;-62
2023/10/07 03:18:23;;;;;;;6.22;3.22;;;14.70;99.90;;;-141.84;70.33;20511.00;5025899;28;20312;-62
2023/10/07 03:21:06;;;;;;;5.18;3.30;;;14.60;99.90;;;-141.84;70.37;20484.56;5044476;28;20240;-61
2023/10/07 03:23:35;;;;;;;6.88;3.83;;;14.60;99.90;;;-141.84;70.83;20517.09;5025594;28;20240;-61
2023/10/07 03:26:09;;;;;;;6.15;3.50;;;14.50;99.90;;;-141.84;70.62;20494.75;5028513;28;20236;-62
2023/10/07 03:28:48;;;;;;;7.03;3.70;;;14.50;99.90;;;-141.84;70.89;20498.81;5044816;28;20209;-62
2023/10/07 03:31:20;;;;;;;5.78;3.30;;;14.50;99.90;;;-141.84;70.94;20462.22;5044216;28;20311;-62
2023/10/07 03:33:52;;;;;;;5.82;3.38;;;14.50;99.90;;;-141.84;71.66;20456.13;5044563;28;20305;-61
2023/10/07 03:36:41;;;;;;;6.97;4.07;;;14.40;99.90;;;-141.84;71.63;20464.25;5044298;28;20229;-62
2023/10/07 03:41:59;;;;;;;5.75;4.03;;;14.40;99.90;;;-141.84;70.92;20482.53;5025192;28;20667;-61
2023/10/07 03:44:31;;;;;;;8.15;4.35;;;14.50;99.90;;;-141.84;71.63;20456.13;5024077;28;20240;-62
2023/10/07 03:46:59;;;;;;;5.80;3.65;;;14.40;99.90;;;-141.84;71.59;20474.41;5026168;28;20234;-62
2023/10/07 03:49:33;;;;;;;7.35;3.92;;;14.40;99.90;;;-141.84;71.73;20458.16;5044674;28;20205;-62
2023/10/07 03:52:07;;;;;;;8.82;3.88;;;14.40;99.90;;;-141.84;72.38;20458.16;5036265;28;20630;-62
2023/10/07 03:54:40;;;;;;;5.07;4.15;;;14.30;99.90;;;-141.84;72.86;20445.94;5044319;28;20229;-62
2023/10/07 03:57:09;;;;;;;6.30;3.78;;;14.20;99.90;;;-141.84;72.62;20419.53;5043382;28;20225;-62
2023/10/07 03:59:39;;;;;;;7.68;3.90;;;14.20;99.90;;;-141.84;72.62;20405.31;5043772;28;20256;-62
2023/10/07 04:02:29;;;;;;;6.75;3.97;;;14.20;99.90;;;-141.84;72.52;20484.56;5037713;28;20271;-61
2023/10/07 04:05:09;;;;;;;5.15;3.70;;;14.10;99.90;;;-141.84;72.41;20452.06;5043950;28;20306;-62
2023/10/07 04:07:38;;;;;;;5.90;4.03;;;14.20;99.90;;;-141.84;73.17;20401.22;5043798;28;20603;-62
2023/10/07 04:10:20;;;;;;;7.28;4.38;;;14.10;99.90;;;-141.84;73.29;20399.19;5056448;28;20234;-62
2023/10/07 04:12:49;;;;;;;8.80;4.03;;;14.00;99.90;;;-141.84;73.40;20397.16;5043390;28;20255;-62
2023/10/07 04:15:27;;;;;;;5.30;3.90;;;14.00;99.90;;;-141.84;73.39;20415.47;5063184;28;20235;-62
2023/10/07 04:17:57;;;;;;;6.05;3.78;;;14.00;99.90;;;-141.84;73.83;20401.22;5053847;28;20228;-62
2023/10/07 04:20:42;;;;;;;7.78;4.22;;;13.90;99.90;;;-141.84;73.40;20382.94;5056469;28;20228;-63
2023/10/07 04:23:10;;;;;;;6.63;4.00;;;13.90;99.90;;;-141.84;73.75;20380.91;5063328;28;20228;-62
2023/10/07 04:25:43;;;;;;;6.15;3.88;;;13.90;99.90;;;-141.84;73.49;20380.91;5063023;28;20240;-61
2023/10/07 04:28:13;;;;;;;5.60;4.20;;;14.00;99.90;;;-141.84;72.65;20391.06;5055926;28;20269;-62
2023/10/07 04:30:47;;;;;;;7.47;4.10;;;14.00;99.90;;;-141.84;71.68;20411.41;5063198;28;20274;-62
2023/10/07 04:33:25;;;;;;;7.03;3.92;;;14.30;99.90;;;-141.84;72.65;20431.72;5063179;28;20290;-63
2023/10/07 04:35:59;;;;;;;5.88;4.03;;;14.10;99.90;;;-141.84;71.96;20423.59;5060770;28;20324;-62
2023/10/07 04:38:52;;;;;;;7.53;4.15;;;14.10;99.90;;;-141.84;72.12;20403.25;5063143;28;20236;-62
2023/10/07 04:41:33;;;;;;;6.20;4.50;;;14.20;99.90;;;-141.84;71.99;20439.84;5062423;28;20311;-63
2023/10/07 04:44:20;;;;;;;4.57;3.85;;;14.20;99.90;;;-141.84;72.49;20389.03;5054508;28;20232;-62
2023/10/07 04:47:20;;;;;;;5.68;3.65;;;14.10;99.90;;;-141.84;73.37;20399.19;5062644;28;20672;-62
2023/10/07 04:49:55;;;;;;;8.00;3.83;;;14.00;99.90;;;-141.84;72.77;20391.06;5063275;28;20208;-62
2023/10/07 04:52:28;;;;;;;5.72;3.60;;;14.00;99.90;;;-141.84;73.67;20354.47;5063141;28;20207;-62
2023/10/07 04:54:58;;;;;;;7.72;3.88;;;13.90;99.90;;;-141.84;73.68;20360.59;5062848;28;20778;-62
2023/10/07 04:57:44;;;;;;;5.53;3.65;;;13.90;99.90;;;-141.84;74.06;20366.69;5062685;28;20290;-62
2023/10/07 05:00:27;;;;;;;6.70;3.95;;;13.80;99.90;;;-141.84;74.29;20374.81;5055975;28;20244;-63
2023/10/07 05:02:59;;;;;;;7.10;3.67;;;13.80;99.90;;;-141.84;73.90;20362.63;5063557;28;20648;-62
2023/10/07 05:05:29;;;;;;;3.80;3.33;;;13.80;99.90;;;-141.84;74.15;20309.75;5062774;28;20761;-62
2023/10/07 05:08:08;;;;;;;6.32;3.42;;;13.80;99.90;;;-141.84;74.29;20374.81;5054679;28;20678;-62
2023/10/07 05:10:41;;;;;;;6.82;4.05;;;13.80;99.90;;;-141.84;73.42;20358.56;5062732;28;20262;-62
2023/10/07 05:13:10;;;;;;;4.88;3.50;;;13.80;99.90;;;-141.84;73.40;20362.63;5062628;28;20243;-62
2023/10/07 05:15:39;;;;;;;5.80;3.40;;;13.80;99.90;;;-141.84;73.43;20338.22;5046119;28;20692;-62
2023/10/07 05:18:12;;;;;;;6.72;3.30;;;13.80;99.90;;;-141.84;73.16;20336.19;5030970;28;20221;-62
2023/10/07 05:20:41;;;;;;;6.05;3.60;;;13.80;99.90;;;-141.84;73.47;20340.25;5033702;28;20730;-62
2023/10/07 05:23:14;;;;;;;5.32;3.63;;;13.80;99.90;;;-141.84;71.29;20397.16;5022420;28;20225;-62
2023/10/07 05:25:48;;;;;;;5.82;3.22;;;13.90;99.90;;;-141.84;71.13;20415.47;5022267;28;20253;-63
2023/10/07 05:28:20;;;;;;;5.55;3.58;;;14.00;99.90;;;-141.84;70.69;20411.41;5026396;28;20331;-62
2023/10/07 05:30:53;;;;;;;5.82;3.42;;;14.00;99.90;;;-141.84;71.13;20462.22;5045463;28;20233;-62
2023/10/07 05:33:25;;;;;;;9.60;3.10;;;14.10;99.90;;;-141.84;70.21;20423.59;5058207;28;20232;-61
2023/10/07 05:36:03;;;;;;;5.32;3.67;;;14.20;99.90;;;-141.84;69.04;20478.47;5049960;28;20896;-61
2023/10/07 05:38:33;;;;;;;6.85;3.45;;;14.30;99.90;;;-141.84;68.90;20494.75;5041990;28;20260;-62
2023/10/07 05:41:01;;;;;;;5.55;3.05;;;14.40;99.90;;;-141.84;68.87;20474.41;5039425;28;20321;-62
2023/10/07 05:43:31;;;;;;;4.53;3.20;;;14.50;99.90;;;-141.84;68.31;20500.84;5033010;28;20590;-63
2023/10/07 05:46:01;;;;;;;6.60;3.35;;;14.60;99.90;;;-141.84;68.45;20484.56;5035387;28;20236;-63
2023/10/07 05:48:30;;;;;;;5.53;3.15;;;14.60;99.90;;;-141.84;67.53;20578.09;5042184;28;20586;-61
2023/10/07 05:50:59;;;;;;;5.40;3.17;;;14.60;99.90;;;-141.84;67.00;20541.50;5042694;28;20261;-63
2023/10/07 05:53:28;;;;;;;5.22;2.90;;;14.70;99.90;;;-141.84;66.90;20541.50;5042149;28;20793;-63
2023/10/07 05:55:57;;;;;;;5.53;2.90;;;14.70;99.90;;;-141.84;66.14;20614.66;5039495;28;20198;-62
2023/10/07 05:58:27;;;;;;;4.35;3.17;;;14.80;99.90;;;-141.84;66.06;20563.84;5046492;28;20209;-62
2023/10/07 06:00:58;;;;;;;5.20;2.97;;;14.80;99.90;;;-141.84;64.69;20606.53;5046394;28;20229;-62
2023/10/07 06:03:28;;;;;;;6.25;3.13;;;15.00;99.90;;;-141.84;64.97;20653.28;5046240;28;20229;-62
2023/10/07 06:05:58;;;;;;;5.10;2.95;;;15.00;99.90;;;-141.84;64.68;20606.53;5038809;28;20725;-62
2023/10/07 06:08:27;;;;;;;6.95;3.38;;;15.00;99.90;;;-141.84;63.54;20667.53;5046258;28;20236;-62
2023/10/07 06:10:57;;;;;;;4.65;2.80;;;15.10;99.90;;;-141.84;63.34;20647.19;5041383;28;20673;-62
2023/10/07 06:13:27;;;;;;;4.43;3.08;;;15.20;99.90;;;-141.84;63.76;20663.47;5044679;28;20213;-61
2023/10/07 06:15:57;;;;;;;4.82;3.13;;;15.20;99.90;;;-141.84;64.48;20610.59;5038860;28;20317;-64
2023/10/07 06:18:27;;;;;;;7.35;3.58;;;15.10;99.90;;;-141.84;63.89;20653.28;5045596;28;20224;-61
2023/10/07 06:21:11;;;;;;;5.60;3.22;;;15.20;99.90;;;-141.84;64.10;20659.38;5046251;28;20283;-62
2023/10/07 06:23:41;;;;;;;6.15;3.35;;;15.20;99.90;;;-141.84;63.92;20659.38;5045984;28;20312;-62
2023/10/07 06:26:11;;;;;;;6.20;3.22;;;15.20;99.90;;;-141.84;64.10;20645.16;5038049;28;20710;-62
2023/10/07 06:28:44;;;;;;;4.30;2.90;;;15.20;99.90;;;-141.84;64.58;20624.84;5045911;28;20271;-61
2023/10/07 06:31:13;;;;;;;4.10;2.85;;;15.20;99.90;;;-141.84;64.37;20618.72;5045873;28;20292;-63
2023/10/07 06:33:43;;;;;;;6.05;3.35;;;15.20;99.90;;;-141.84;64.23;20637.03;5062683;28;20229;-62
2023/10/07 06:36:14;;;;;;;4.35;2.85;;;15.20;99.90;;;-141.84;64.22;20620.78;5058277;28;20245;-62
2023/10/07 06:38:52;;;;;;;6.00;3.50;;;15.20;99.90;;;-141.84;63.08;20659.38;5065247;28;20282;-62
2023/10/07 06:41:21;;;;;;;8.63;3.58;;;15.30;99.90;;;-141.84;63.65;20655.31;5061835;28;20588;-63
2023/10/07 06:43:51;;;;;;;4.63;2.80;;;15.30;99.90;;;-141.84;63.68;20651.25;5064672;28;20209;-63
2023/10/07 06:46:21;;;;;;;5.25;3.15;;;15.20;99.90;;;-141.84;63.29;20671.59;5062157;28;20751;-62
2023/10/07 06:48:50;;;;;;;6.95;3.80;;;15.40;99.90;;;-141.84;63.21;20681.75;5064065;28;20224;-63
2023/10/07 06:51:20;;;;;;;7.25;3.67;;;15.40;99.90;;;-141.84;63.94;20673.63;5065352;28;20224;-62
2023/10/07 06:53:48;;;;;;;5.18;2.92;;;15.40;99.90;;;-141.84;63.47;20700.03;5065985;28;20224;-62
2023/10/07 06:56:21;;;;;;;6.28;3.33;;;15.50;99.90;;;-141.84;63.03;20726.47;5057337;28;20297;-63
2023/10/07 06:58:53;;;;;;;5.90;3.28;;;15.60;99.90;;;-141.84;63.12;20720.38;5065169;28;20204;-62
2023/10/07 07:01:36;;;;;;;5.07;2.92;;;15.60;99.90;;;-141.84;62.60;20779.31;5064972;28;20213;-63
2023/10/07 07:04:10;;;;;;;5.85;3.08;;;15.80;99.90;;;-141.84;62.11;20765.09;5058141;28;20221;-63
2023/10/07 07:06:43;;;;;;;9.00;3.50;;;15.90;99.90;;;-141.84;62.13;20824.06;5061083;28;20248;-62
2023/10/07 07:12:03;;;;;;;7.55;3.53;;;16.00;99.90;;;-141.84;62.08;20850.47;5056612;28;20221;-62
2023/10/07 07:14:33;;;;;;;4.95;3.00;;;16.10;99.90;;;-141.84;62.05;20793.56;5066875;28;20317;-63
2023/10/07 07:17:29;;;;;;;4.93;3.60;;;16.20;99.90;;;-141.84;61.83;20820.00;5068905;28;20228;-62
2023/10/07 07:20:29;;;;;;;5.03;3.38;;;16.20;99.90;;;-141.84;62.06;20838.28;5060607;28;20216;-63
2023/10/07 07:23:03;;;;;;;5.80;2.90;;;16.20;99.90;;;-141.84;62.02;20848.44;5066031;28;20219;-62
2023/10/07 07:25:36;;;;;;;5.78;3.35;;;16.30;99.90;;;-141.84;61.66;20822.03;5065256;28;20232;-63
2023/10/07 07:28:09;;;;;;;5.60;3.08;;;16.30;99.90;;;-141.84;62.35;20834.22;5037510;28;20221;-63
2023/10/07 07:30:38;;;;;;;5.78;3.40;;;16.30;99.90;;;-141.84;62.16;20850.47;5044251;28;20225;-62
2023/10/07 07:33:08;;;;;;;5.72;3.50;;;16.30;99.90;;;-141.84;62.24;20872.84;5044483;28;20276;-62
2023/10/07 07:35:40;;;;;;;4.20;3.30;;;16.40;99.90;;;-141.84;62.06;20856.56;5044257;28;20643;-62
2023/10/07 07:38:22;;;;;;;5.68;3.40;;;16.40;99.90;;;-141.84;62.70;20842.34;5037309;28;20583;-63
2023/10/07 07:40:52;;;;;;;5.38;3.45;;;16.40;99.90;;;-141.84;63.00;20885.03;5039587;28;20216;-63
2023/10/07 07:43:25;;;;;;;4.78;3.55;;;16.50;99.90;;;-141.84;62.21;20880.97;5044267;28;20274;-62
2023/10/07 07:46:05;;;;;;;5.70;3.38;;;16.60;99.90;;;-141.84;61.76;20927.72;5042412;28;20225;-62
2023/10/07 07:48:36;;;;;;;6.43;3.25;;;16.70;99.90;;;-141.84;61.46;21004.97;5044555;28;20229;-62
2023/10/07 07:51:07;;;;;;;4.78;3.40;;;16.80;99.90;;;-141.84;61.53;20899.28;5044152;28;20255;-63
2023/10/07 07:53:36;;;;;;;4.28;3.30;;;16.90;99.90;;;-141.84;61.32;20984.66;5044303;28;20599;-63
2023/10/07 07:56:08;;;;;;;3.88;3.15;;;16.90;99.90;;;-141.84;61.29;20972.47;5036776;28;20738;-62
2023/10/07 07:58:37;;;;;;;10.10;3.65;;;17.00;99.90;;;-141.84;61.88;20948.06;5044247;28;20312;-62
2023/10/07 08:01:05;;;;;;;5.60;3.22;;;16.90;99.90;;;-141.84;62.28;20950.09;5044109;28;20256;-63
2023/10/07 08:03:38;;;;;;;8.93;3.30;;;16.90;99.90;;;-141.84;62.26;20935.88;5035498;28;20781;-61
2023/10/07 08:06:11;;;;;;;6.95;3.50;;;16.90;99.90;;;-141.84;62.70;20954.16;5018890;28;20245;-63
2023/10/07 08:08:41;;;;;;;4.07;2.92;;;16.90;99.90;;;-141.84;62.32;20992.78;5044950;28;20261;-61
2023/10/07 08:11:13;;;;;;;4.93;3.30;;;17.00;99.90;;;-141.84;62.18;20954.16;5043291;28;20257;-63
2023/10/07 08:13:42;;;;;;;5.22;3.33;;;17.00;99.90;;;-141.84;63.20;20917.56;5041782;28;20244;-62
2023/10/07 08:16:15;;;;;;;5.68;3.65;;;16.90;99.90;;;-141.84;63.95;20899.28;5035306;28;20212;-63
2023/10/07 08:18:44;;;;;;;5.03;3.20;;;16.80;99.90;;;-141.84;63.73;20939.94;5055483;28;20301;-62
2023/10/07 08:21:14;;;;;;;9.38;3.65;;;16.80;99.90;;;-141.84;63.43;20931.78;5043015;28;20223;-62
2023/10/07 08:23:46;;;;;;;5.53;3.28;;;16.90;99.90;;;-141.84;63.45;21000.91;5039070;28;20248;-60
2023/10/07 08:26:20;;;;;;;6.97;3.60;;;16.90;99.90;;;-141.84;63.77;20917.56;5032542;28;20921;-61
2023/10/07 08:29:00;;;;;;;5.35;3.30;;;16.80;99.90;;;-141.84;64.68;20889.09;5036928;28;20254;-61
2023/10/07 08:31:43;;;;;;;8.00;3.53;;;16.80;99.90;;;-141.84;64.66;20917.56;5036677;28;20296;-61
2023/10/07 08:34:14;;;;;;;4.43;3.40;;;16.70;99.90;;;-141.84;64.55;20899.28;5028112;28;20225;-61
2023/10/07 08:36:47;;;;;;;5.30;3.22;;;16.80;99.90;;;-141.84;64.71;20921.63;5043366;28;20261;-63
2023/10/07 08:39:18;;;;;;;6.25;3.40;;;16.80;99.90;;;-141.84;64.50;20923.66;5042281;28;20236;-61
2023/10/07 08:41:52;;;;;;;5.57;3.40;;;16.80;99.90;;;-141.84;64.94;20870.81;5029581;28;20463;-62
2023/10/07 08:44:29;;;;;;;4.45;3.45;;;16.80;99.90;;;-141.84;65.00;20917.56;5041966;28;20240;-62
2023/10/07 08:47:05;;;;;;;5.25;3.42;;;16.90;99.90;;;-141.84;63.87;20964.31;5042930;28;20224;-61
2023/10/07 08:49:36;;;;;;;7.45;3.78;;;17.00;99.90;;;-141.84;64.08;20956.19;5043825;28;20673;-62
2023/10/07 08:52:08;;;;;;;7.72;3.92;;;17.10;99.90;;;-141.84;64.37;20978.56;5034287;28;20224;-62
2023/10/07 08:54:44;;;;;;;4.90;3.90;;;17.10;99.90;;;-141.84;64.55;20956.19;5042458;28;20239;-63
2023/10/07 08:57:19;;;;;;;7.45;3.70;;;17.00;99.90;;;-141.84;64.70;20956.19;5043316;28;20270;-62
2023/10/07 08:59:52;;;;;;;8.20;3.97;;;17.10;99.90;;;-141.84;65.02;20956.19;5042747;28;20247;-62
2023/10/07 09:02:32;;;;;;;7.22;4.00;;;17.10;99.90;;;-141.84;64.41;21004.97;5040506;28;20592;-62
2023/10/07 09:05:05;;;;;;;5.60;3.83;;;17.30;99.90;;;-141.84;64.15;20998.88;5037372;28;20231;-61
2023/10/07 09:07:35;;;;;;;5.30;2.92;;;17.10;99.90;;;-141.84;65.06;20972.47;5038434;28;20320;-63
2023/10/07 09:10:10;;;;;;;7.93;3.65;;;17.10;99.90;;;-141.84;64.48;21041.56;5028147;28;20267;-63
2023/10/07 09:12:45;;;;;;;4.97;3.42;;;17.20;99.90;;;-141.84;64.74;20990.75;5035016;28;20641;-61
2023/10/07 09:15:25;;;;;;;8.93;4.07;;;17.20;99.90;;;-141.84;65.54;20966.34;5037007;28;20574;-61
2023/10/07 09:18:03;;;;;;;6.30;4.10;;;17.10;99.90;;;-141.84;66.32;20915.53;5033115;28;20254;-61
2023/10/07 09:20:36;;;;;;;7.45;4.00;;;16.90;99.90;;;-141.84;66.79;20911.47;5043948;28;20316;-62
2023/10/07 09:23:15;;;;;;;6.30;3.85;;;16.90;99.90;;;-141.84;66.80;20880.97;5056117;28;20236;-62
2023/10/07 09:25:46;;;;;;;7.65;4.30;;;16.90;99.90;;;-141.84;67.45;20854.53;5056254;28;20216;-60
2023/10/07 09:28:17;;;;;;;6.15;3.88;;;16.90;99.90;;;-141.84;67.91;20891.13;5049727;28;20773;-60
2023/10/07 09:30:48;;;;;;;4.85;4.00;;;16.80;99.90;;;-141.84;67.83;20905.38;5060680;28;20233;-60
2023/10/07 09:33:21;;;;;;;6.38;3.72;;;16.80;99.90;;;-141.84;67.72;20887.06;5060286;28;20224;-59
2023/10/07 09:36:22;;;;;;;7.68;4.15;;;16.80;99.90;;;-141.84;68.12;20895.19;5059251;28;20252;-63
2023/10/07 09:38:43;;;;;;;6.47;3.97;;;16.90;99.90;;;-141.84;67.87;20870.81;5059104;28;20239;-63
2023/10/07 09:41:23;;;;;;;6.95;3.88;;;16.80;99.90;;;-141.84;67.78;20901.31;5059762;28;20692;-69
2023/10/07 09:43:56;;;;;;;5.63;4.03;;;16.80;99.90;;;-141.84;67.17;20907.41;5060140;28;21064;-65
2023/10/07 09:46:24;;;;;;;6.97;4.47;;;16.90;99.90;;;-141.84;67.82;20919.59;5060141;28;20220;-63
2023/10/07 09:49:06;;;;;;;4.88;4.00;;;16.90;99.90;;;-141.84;68.53;20856.56;5059935;28;20259;-64
2023/10/07 09:51:41;;;;;;;6.78;4.05;;;16.80;99.90;;;-141.84;68.17;20899.28;5060296;28;20240;-66
2023/10/07 09:54:47;;;;;;;7.47;4.03;;;16.90;99.90;;;-141.84;68.35;20876.91;5052182;28;20527;-64
2023/10/07 09:57:32;;;;;;;7.47;4.50;;;16.90;99.90;;;-141.84;67.70;20933.81;5040277;28;20228;-64
2023/10/07 10:03:45;;;;;;;5.88;4.10;;;17.00;99.90;;;-141.84;65.89;21043.59;5054814;27;21063;-61
2023/10/07 10:06:33;;;;;;;5.03;3.83;;;17.30;99.90;;;-141.84;65.42;21059.88;5006584;28;20598;-61
2023/10/07 10:09:09;;;;;;;5.93;4.50;;;17.60;99.90;;;-141.84;65.06;21112.72;5014483;28;20781;-60
2023/10/07 10:11:47;;;;;;;9.10;4.45;;;17.80;99.90;;;-141.84;64.43;21143.22;5022434;28;20229;-61
2023/10/07 10:14:19;;;;;;;7.18;4.40;;;17.90;99.90;;;-141.84;64.41;21126.97;5026769;28;20241;-60
2023/10/07 10:16:57;;;;;;;5.00;3.97;;;18.00;99.90;;;-141.84;64.83;21131.03;5034919;28;21016;-61
2023/10/07 10:19:29;;;;;;;9.57;4.63;;;18.00;99.90;;;-141.84;65.20;21090.38;5035774;28;20228;-64
2023/10/07 10:22:10;;;;;;;6.68;4.40;;;18.00;99.90;;;-141.84;64.78;21112.72;5026898;28;20236;-63
2023/10/07 10:24:43;;;;;;;6.22;4.22;;;18.00;99.90;;;-141.84;65.11;21114.75;5035030;28;20800;-63
2023/10/07 10:27:13;;;;;;;5.55;4.05;;;18.00;99.90;;;-141.84;65.28;21133.06;5026227;28;20255;-63
2023/10/07 10:29:55;;;;;;;6.70;3.97;;;18.00;99.90;;;-141.84;65.01;21131.03;5033083;28;20244;-65
2023/10/07 10:32:29;;;;;;;8.02;4.50;;;18.10;99.90;;;-141.84;64.56;21167.63;4994723;28;20237;-65
2023/10/07 10:35:03;;;;;;;5.82;4.22;;;18.20;99.90;;;-141.84;65.00;21159.50;5012613;28;20228;-65
2023/10/07 10:37:32;;;;;;;6.22;4.25;;;18.20;99.90;;;-141.84;65.28;21102.56;5013060;28;20240;-64
2023/10/07 10:40:12;;;;;;;7.15;4.18;;;18.20;99.90;;;-141.84;66.03;21086.31;5005037;28;20287;-62
2023/10/07 10:42:42;;;;;;;7.28;4.18;;;18.00;99.90;;;-141.84;65.97;21090.38;5012756;28;20233;-61
2023/10/07 10:45:19;;;;;;;4.80;3.72;;;18.00;99.90;;;-141.84;67.05;21043.59;5013033;28;20481;-62